sensor_id;sensor_type;location;lat;lon;timestamp;temperature;humidity
75296;DHT22;64623;44.738;37.804;2023-06-22T00:00:22;7.25;118.99
75296;DHT22;64623;44.738;37.804;2023-06-22T00:01:25;7.43;118.99
75296;DHT22;64623;44.738;37.804;2023-06-22T00:02:28;7.39;118.99
75296;DHT22;64623;44.738;37.804;2023-06-22T00:03:31;7.28;118.99
75296;DHT22;64623;44.738;37.804;2023-06-22T00:04:34;7.23;118.99
75296;DHT22;64623;44.738;37.804;2023-06-22T00:05:37;7.24;118.99
75296;DHT22;64623;44.738;37.804;2023-06-22T00:06:41;7.24;118.99
75296;DHT22;64623;44.738;37.804;2023-06-22T00:07:44;7.30;118.99
75296;DHT22;64623;44.738;37.804;2023-06-22T00:08:47;7.24;118.99
75296;DHT22;64623;44.738;37.804;2023-06-22T00:09:50;7.33;118.99
75296;DHT22;64623;44.738;37.804;2023-06-22T00:10:53;7.35;118.99
75296;DHT22;64623;44.738;37.804;2023-06-22T00:11:56;7.35;118.99
75296;DHT22;64623;44.738;37.804;2023-06-22T00:12:59;7.14;118.99
75296;DHT22;64623;44.738;37.804;2023-06-22T00:14:02;7.16;118.99
75296;DHT22;64623;44.738;37.804;2023-06-22T00:15:06;7.20;118.99
75296;DHT22;64623;44.738;37.804;2023-06-22T00:16:09;7.41;118.99
75296;DHT22;64623;44.738;37.804;2023-06-22T00:17:12;7.64;118.99
75296;DHT22;64623;44.738;37.804;2023-06-22T00:18:15;7.73;118.99
75296;DHT22;64623;44.738;37.804;2023-06-22T00:19:18;7.58;118.99
75296;DHT22;64623;44.738;37.804;2023-06-22T00:20:22;7.54;118.99
75296;DHT22;64623;44.738;37.804;2023-06-22T00:21:26;7.59;118.99
75296;DHT22;64623;44.738;37.804;2023-06-22T00:22:29;7.58;118.99
75296;DHT22;64623;44.738;37.804;2023-06-22T00:23:32;7.47;118.99
75296;DHT22;64623;44.738;37.804;2023-06-22T00:24:37;7.47;118.99
75296;DHT22;64623;44.738;37.804;2023-06-22T00:25:40;7.57;118.99
75296;DHT22;64623;44.738;37.804;2023-06-22T00:26:43;7.54;118.99
75296;DHT22;64623;44.738;37.804;2023-06-22T00:27:47;7.59;118.99
75296;DHT22;64623;44.738;37.804;2023-06-22T00:28:50;7.61;118.99
75296;DHT22;64623;44.738;37.804;2023-06-22T00:29:54;7.48;118.99
75296;DHT22;64623;44.738;37.804;2023-06-22T00:30:57;7.37;118.99
75296;DHT22;64623;44.738;37.804;2023-06-22T00:32:00;7.58;118.99
75296;DHT22;64623;44.738;37.804;2023-06-22T00:33:03;7.49;118.99
75296;DHT22;64623;44.738;37.804;2023-06-22T00:34:10;7.33;118.99
75296;DHT22;64623;44.738;37.804;2023-06-22T00:35:13;7.47;118.99
75296;DHT22;64623;44.738;37.804;2023-06-22T00:36:16;7.49;118.99
75296;DHT22;64623;44.738;37.804;2023-06-22T00:37:20;7.42;118.99
75296;DHT22;64623;44.738;37.804;2023-06-22T00:38:28;7.45;118.99
75296;DHT22;64623;44.738;37.804;2023-06-22T00:39:31;7.45;118.99
75296;DHT22;64623;44.738;37.804;2023-06-22T00:40:35;7.28;118.99
75296;DHT22;64623;44.738;37.804;2023-06-22T00:41:38;7.20;118.99
75296;DHT22;64623;44.738;37.804;2023-06-22T00:42:42;6.97;118.99
75296;DHT22;64623;44.738;37.804;2023-06-22T00:43:45;7.04;118.99
75296;DHT22;64623;44.738;37.804;2023-06-22T00:44:48;7.38;118.99
75296;DHT22;64623;44.738;37.804;2023-06-22T00:45:52;7.57;118.99
75296;DHT22;64623;44.738;37.804;2023-06-22T00:46:55;7.17;118.99
75296;DHT22;64623;44.738;37.804;2023-06-22T00:47:58;7.18;118.99
75296;DHT22;64623;44.738;37.804;2023-06-22T00:49:02;7.58;118.99
75296;DHT22;64623;44.738;37.804;2023-06-22T00:50:08;7.45;118.99
75296;DHT22;64623;44.738;37.804;2023-06-22T00:51:12;7.13;118.99
75296;DHT22;64623;44.738;37.804;2023-06-22T00:52:15;7.42;118.99
75296;DHT22;64623;44.738;37.804;2023-06-22T00:53:24;7.37;118.99
75296;DHT22;64623;44.738;37.804;2023-06-22T00:54:29;7.43;118.99
75296;DHT22;64623;44.738;37.804;2023-06-22T00:55:33;7.30;118.99
75296;DHT22;64623;44.738;37.804;2023-06-22T00:56:39;7.13;118.99
75296;DHT22;64623;44.738;37.804;2023-06-22T00:57:42;7.15;118.99
75296;DHT22;64623;44.738;37.804;2023-06-22T00:58:46;7.28;118.99
75296;DHT22;64623;44.738;37.804;2023-06-22T00:59:51;7.46;118.99
75296;DHT22;64623;44.738;37.804;2023-06-22T01:00:55;7.14;118.99
75296;DHT22;64623;44.738;37.804;2023-06-22T01:01:58;7.26;118.99
75296;DHT22;64623;44.738;37.804;2023-06-22T01:03:01;7.27;118.99
75296;DHT22;64623;44.738;37.804;2023-06-22T01:04:05;7.26;118.99
75296;DHT22;64623;44.738;37.804;2023-06-22T01:05:08;7.08;118.99
75296;DHT22;64623;44.738;37.804;2023-06-22T01:06:17;6.98;118.99
75296;DHT22;64623;44.738;37.804;2023-06-22T01:07:28;6.90;118.99
75296;DHT22;64623;44.738;37.804;2023-06-22T01:08:46;6.98;118.99
75296;DHT22;64623;44.738;37.804;2023-06-22T01:10:10;6.75;118.99
75296;DHT22;64623;44.738;37.804;2023-06-22T01:11:37;6.84;118.99
75296;DHT22;64623;44.738;37.804;2023-06-22T01:12:48;6.95;118.99
75296;DHT22;64623;44.738;37.804;2023-06-22T01:16:05;6.83;118.99
75296;DHT22;64623;44.738;37.804;2023-06-22T01:17:12;6.88;118.99
75296;DHT22;64623;44.738;37.804;2023-06-22T01:18:20;6.86;118.99
75296;DHT22;64623;44.738;37.804;2023-06-22T01:20:44;6.83;118.99
75296;DHT22;64623;44.738;37.804;2023-06-22T01:21:49;6.70;118.99
75296;DHT22;64623;44.738;37.804;2023-06-22T01:25:25;6.34;118.99
75296;DHT22;64623;44.738;37.804;2023-06-22T01:26:54;6.73;118.99
75296;DHT22;64623;44.738;37.804;2023-06-22T01:29:11;6.81;118.99
75296;DHT22;64623;44.738;37.804;2023-06-22T01:30:17;6.59;118.99
75296;DHT22;64623;44.738;37.804;2023-06-22T01:31:27;6.56;118.99
75296;DHT22;64623;44.738;37.804;2023-06-22T01:32:34;6.69;118.99
75296;DHT22;64623;44.738;37.804;2023-06-22T01:33:42;6.55;118.99
75296;DHT22;64623;44.738;37.804;2023-06-22T01:34:46;6.56;118.99
75296;DHT22;64623;44.738;37.804;2023-06-22T01:35:50;6.74;118.99
75296;DHT22;64623;44.738;37.804;2023-06-22T01:36:53;6.81;118.99
75296;DHT22;64623;44.738;37.804;2023-06-22T01:37:57;6.94;118.99
75296;DHT22;64623;44.738;37.804;2023-06-22T01:39:02;6.84;118.99
75296;DHT22;64623;44.738;37.804;2023-06-22T01:40:07;6.80;118.99
75296;DHT22;64623;44.738;37.804;2023-06-22T01:41:11;6.93;118.99
75296;DHT22;64623;44.738;37.804;2023-06-22T01:42:15;6.66;118.99
75296;DHT22;64623;44.738;37.804;2023-06-22T01:43:20;6.79;118.99
75296;DHT22;64623;44.738;37.804;2023-06-22T01:44:26;6.80;118.99
75296;DHT22;64623;44.738;37.804;2023-06-22T01:45:30;6.74;118.99
75296;DHT22;64623;44.738;37.804;2023-06-22T01:46:36;6.80;118.99
75296;DHT22;64623;44.738;37.804;2023-06-22T01:47:40;6.68;118.99
75296;DHT22;64623;44.738;37.804;2023-06-22T01:48:44;6.71;118.99
75296;DHT22;64623;44.738;37.804;2023-06-22T01:49:48;6.74;118.99
75296;DHT22;64623;44.738;37.804;2023-06-22T01:50:52;6.73;118.99
75296;DHT22;64623;44.738;37.804;2023-06-22T01:51:56;6.83;118.99
75296;DHT22;64623;44.738;37.804;2023-06-22T01:52:59;6.83;118.99
75296;DHT22;64623;44.738;37.804;2023-06-22T01:54:02;6.82;118.99
75296;DHT22;64623;44.738;37.804;2023-06-22T01:55:05;6.80;118.99
75296;DHT22;64623;44.738;37.804;2023-06-22T01:56:10;6.82;118.99
75296;DHT22;64623;44.738;37.804;2023-06-22T01:57:13;6.79;118.99
75296;DHT22;64623;44.738;37.804;2023-06-22T01:58:16;6.84;118.99
75296;DHT22;64623;44.738;37.804;2023-06-22T01:59:29;6.75;118.99
75296;DHT22;64623;44.738;37.804;2023-06-22T02:00:38;6.80;118.99
75296;DHT22;64623;44.738;37.804;2023-06-22T02:01:44;6.87;118.99
75296;DHT22;64623;44.738;37.804;2023-06-22T02:02:57;6.88;118.99
75296;DHT22;64623;44.738;37.804;2023-06-22T02:04:06;6.96;118.99
75296;DHT22;64623;44.738;37.804;2023-06-22T02:05:16;6.90;118.99
75296;DHT22;64623;44.738;37.804;2023-06-22T02:06:25;6.89;118.99
75296;DHT22;64623;44.738;37.804;2023-06-22T02:08:57;6.49;118.99
75296;DHT22;64623;44.738;37.804;2023-06-22T02:10:03;6.43;118.99
75296;DHT22;64623;44.738;37.804;2023-06-22T02:11:09;6.46;118.99
75296;DHT22;64623;44.738;37.804;2023-06-22T02:12:18;6.72;118.99
75296;DHT22;64623;44.738;37.804;2023-06-22T02:13:24;6.65;118.99
75296;DHT22;64623;44.738;37.804;2023-06-22T02:14:28;6.96;118.99
75296;DHT22;64623;44.738;37.804;2023-06-22T02:15:32;7.07;118.99
75296;DHT22;64623;44.738;37.804;2023-06-22T02:16:36;6.97;118.99
75296;DHT22;64623;44.738;37.804;2023-06-22T02:17:40;6.93;118.99
75296;DHT22;64623;44.738;37.804;2023-06-22T02:18:49;7.08;118.99
75296;DHT22;64623;44.738;37.804;2023-06-22T02:19:55;6.96;118.99
75296;DHT22;64623;44.738;37.804;2023-06-22T02:20:58;6.95;118.99
75296;DHT22;64623;44.738;37.804;2023-06-22T02:22:02;6.99;118.99
75296;DHT22;64623;44.738;37.804;2023-06-22T02:23:06;6.91;118.99
75296;DHT22;64623;44.738;37.804;2023-06-22T02:24:10;6.65;118.99
75296;DHT22;64623;44.738;37.804;2023-06-22T02:25:13;6.89;118.99
75296;DHT22;64623;44.738;37.804;2023-06-22T02:26:17;6.98;118.99
75296;DHT22;64623;44.738;37.804;2023-06-22T02:27:21;6.88;118.99
75296;DHT22;64623;44.738;37.804;2023-06-22T02:28:24;6.60;118.99
75296;DHT22;64623;44.738;37.804;2023-06-22T02:29:28;6.71;118.99
75296;DHT22;64623;44.738;37.804;2023-06-22T02:30:31;6.69;118.99
75296;DHT22;64623;44.738;37.804;2023-06-22T02:31:35;7.04;118.99
75296;DHT22;64623;44.738;37.804;2023-06-22T02:32:38;7.01;118.99
75296;DHT22;64623;44.738;37.804;2023-06-22T02:33:44;7.17;118.99
75296;DHT22;64623;44.738;37.804;2023-06-22T02:34:48;7.22;118.99
75296;DHT22;64623;44.738;37.804;2023-06-22T02:35:51;7.02;118.99
75296;DHT22;64623;44.738;37.804;2023-06-22T02:36:56;7.11;118.99
75296;DHT22;64623;44.738;37.804;2023-06-22T02:38:04;7.07;118.99
75296;DHT22;64623;44.738;37.804;2023-06-22T02:39:07;7.18;118.99
75296;DHT22;64623;44.738;37.804;2023-06-22T02:40:12;7.05;118.99
75296;DHT22;64623;44.738;37.804;2023-06-22T02:41:15;6.96;118.99
75296;DHT22;64623;44.738;37.804;2023-06-22T02:42:23;7.10;118.99
75296;DHT22;64623;44.738;37.804;2023-06-22T02:43:26;7.12;118.99
75296;DHT22;64623;44.738;37.804;2023-06-22T02:44:29;7.19;118.99
75296;DHT22;64623;44.738;37.804;2023-06-22T02:45:32;7.22;118.99
75296;DHT22;64623;44.738;37.804;2023-06-22T02:46:36;7.19;118.99
75296;DHT22;64623;44.738;37.804;2023-06-22T02:47:39;7.15;118.99
75296;DHT22;64623;44.738;37.804;2023-06-22T02:48:43;7.22;118.99
75296;DHT22;64623;44.738;37.804;2023-06-22T02:49:47;7.14;118.99
75296;DHT22;64623;44.738;37.804;2023-06-22T02:50:51;6.97;118.99
75296;DHT22;64623;44.738;37.804;2023-06-22T02:51:54;6.96;118.99
75296;DHT22;64623;44.738;37.804;2023-06-22T02:52:58;7.19;118.99
75296;DHT22;64623;44.738;37.804;2023-06-22T02:54:03;7.23;118.99
75296;DHT22;64623;44.738;37.804;2023-06-22T02:55:06;7.15;118.99
75296;DHT22;64623;44.738;37.804;2023-06-22T02:56:13;7.31;118.99
75296;DHT22;64623;44.738;37.804;2023-06-22T02:57:16;7.28;118.99
75296;DHT22;64623;44.738;37.804;2023-06-22T02:58:19;7.10;118.99
75296;DHT22;64623;44.738;37.804;2023-06-22T02:59:22;7.31;118.99
75296;DHT22;64623;44.738;37.804;2023-06-22T03:00:32;7.29;118.99
75296;DHT22;64623;44.738;37.804;2023-06-22T03:01:36;7.32;118.99
75296;DHT22;64623;44.738;37.804;2023-06-22T03:02:51;7.31;118.99
75296;DHT22;64623;44.738;37.804;2023-06-22T03:03:54;7.25;118.99
75296;DHT22;64623;44.738;37.804;2023-06-22T03:04:58;7.38;118.99
75296;DHT22;64623;44.738;37.804;2023-06-22T03:06:01;7.35;118.99
75296;DHT22;64623;44.738;37.804;2023-06-22T03:07:04;7.46;118.99
75296;DHT22;64623;44.738;37.804;2023-06-22T03:08:08;7.53;118.99
75296;DHT22;64623;44.738;37.804;2023-06-22T03:09:11;7.58;118.99
75296;DHT22;64623;44.738;37.804;2023-06-22T03:10:15;7.71;118.99
75296;DHT22;64623;44.738;37.804;2023-06-22T03:11:18;7.45;118.99
75296;DHT22;64623;44.738;37.804;2023-06-22T03:12:21;7.32;118.99
75296;DHT22;64623;44.738;37.804;2023-06-22T03:13:27;7.42;118.99
75296;DHT22;64623;44.738;37.804;2023-06-22T03:14:30;7.48;118.99
75296;DHT22;64623;44.738;37.804;2023-06-22T03:15:34;7.67;118.99
75296;DHT22;64623;44.738;37.804;2023-06-22T03:16:37;7.53;118.99
75296;DHT22;64623;44.738;37.804;2023-06-22T03:17:40;7.39;118.99
75296;DHT22;64623;44.738;37.804;2023-06-22T03:18:44;7.35;118.99
75296;DHT22;64623;44.738;37.804;2023-06-22T03:19:48;7.45;118.99
75296;DHT22;64623;44.738;37.804;2023-06-22T03:20:51;7.56;118.99
75296;DHT22;64623;44.738;37.804;2023-06-22T03:21:54;7.50;118.99
75296;DHT22;64623;44.738;37.804;2023-06-22T03:22:57;7.40;118.99
75296;DHT22;64623;44.738;37.804;2023-06-22T03:24:00;7.57;118.99
75296;DHT22;64623;44.738;37.804;2023-06-22T03:25:03;7.60;118.99
75296;DHT22;64623;44.738;37.804;2023-06-22T03:26:09;7.71;118.99
75296;DHT22;64623;44.738;37.804;2023-06-22T03:27:12;7.81;118.99
75296;DHT22;64623;44.738;37.804;2023-06-22T03:28:15;7.92;118.99
75296;DHT22;64623;44.738;37.804;2023-06-22T03:29:19;7.87;118.99
75296;DHT22;64623;44.738;37.804;2023-06-22T03:30:22;8.06;118.99
75296;DHT22;64623;44.738;37.804;2023-06-22T03:31:25;7.97;118.99
75296;DHT22;64623;44.738;37.804;2023-06-22T03:32:29;7.99;118.99
75296;DHT22;64623;44.738;37.804;2023-06-22T03:33:33;8.08;118.99
75296;DHT22;64623;44.738;37.804;2023-06-22T03:34:36;7.86;118.99
75296;DHT22;64623;44.738;37.804;2023-06-22T03:35:39;7.98;118.99
75296;DHT22;64623;44.738;37.804;2023-06-22T03:36:42;8.16;118.99
75296;DHT22;64623;44.738;37.804;2023-06-22T03:37:47;8.20;118.99
75296;DHT22;64623;44.738;37.804;2023-06-22T03:38:51;8.17;118.99
75296;DHT22;64623;44.738;37.804;2023-06-22T03:39:55;8.17;118.99
75296;DHT22;64623;44.738;37.804;2023-06-22T03:40:58;7.98;118.99
75296;DHT22;64623;44.738;37.804;2023-06-22T03:42:01;8.06;118.99
75296;DHT22;64623;44.738;37.804;2023-06-22T03:43:04;8.31;118.99
75296;DHT22;64623;44.738;37.804;2023-06-22T03:44:07;8.01;118.99
75296;DHT22;64623;44.738;37.804;2023-06-22T03:45:15;8.18;118.99
75296;DHT22;64623;44.738;37.804;2023-06-22T03:46:18;8.37;118.99
75296;DHT22;64623;44.738;37.804;2023-06-22T03:47:22;8.36;118.99
75296;DHT22;64623;44.738;37.804;2023-06-22T03:48:26;8.44;118.99
75296;DHT22;64623;44.738;37.804;2023-06-22T03:49:29;8.50;118.99
75296;DHT22;64623;44.738;37.804;2023-06-22T03:50:35;8.61;118.99
75296;DHT22;64623;44.738;37.804;2023-06-22T03:51:38;8.64;118.99
75296;DHT22;64623;44.738;37.804;2023-06-22T03:52:41;8.72;118.99
75296;DHT22;64623;44.738;37.804;2023-06-22T03:53:44;8.47;118.99
75296;DHT22;64623;44.738;37.804;2023-06-22T03:54:48;8.79;118.99
75296;DHT22;64623;44.738;37.804;2023-06-22T03:55:52;8.76;118.99
75296;DHT22;64623;44.738;37.804;2023-06-22T03:56:57;8.59;118.99
75296;DHT22;64623;44.738;37.804;2023-06-22T03:58:01;8.31;118.99
75296;DHT22;64623;44.738;37.804;2023-06-22T03:59:08;8.50;118.99
75296;DHT22;64623;44.738;37.804;2023-06-22T04:00:11;8.73;118.99
75296;DHT22;64623;44.738;37.804;2023-06-22T04:01:15;8.66;118.99
75296;DHT22;64623;44.738;37.804;2023-06-22T04:02:19;8.46;118.99
75296;DHT22;64623;44.738;37.804;2023-06-22T04:03:22;8.70;118.99
75296;DHT22;64623;44.738;37.804;2023-06-22T04:04:25;8.88;118.99
75296;DHT22;64623;44.738;37.804;2023-06-22T04:05:28;8.59;118.99
75296;DHT22;64623;44.738;37.804;2023-06-22T04:06:31;8.82;118.99
75296;DHT22;64623;44.738;37.804;2023-06-22T04:07:36;8.71;118.99
75296;DHT22;64623;44.738;37.804;2023-06-22T04:08:42;8.74;118.99
75296;DHT22;64623;44.738;37.804;2023-06-22T04:09:45;8.75;118.99
75296;DHT22;64623;44.738;37.804;2023-06-22T04:10:49;8.83;118.99
75296;DHT22;64623;44.738;37.804;2023-06-22T04:11:52;8.82;118.99
75296;DHT22;64623;44.738;37.804;2023-06-22T04:12:55;9.01;118.99
75296;DHT22;64623;44.738;37.804;2023-06-22T04:13:58;8.95;118.99
75296;DHT22;64623;44.738;37.804;2023-06-22T04:15:02;8.80;118.99
75296;DHT22;64623;44.738;37.804;2023-06-22T04:16:05;8.86;118.99
75296;DHT22;64623;44.738;37.804;2023-06-22T04:17:08;8.95;118.99
75296;DHT22;64623;44.738;37.804;2023-06-22T04:18:12;8.83;118.99
75296;DHT22;64623;44.738;37.804;2023-06-22T04:19:16;8.91;118.99
75296;DHT22;64623;44.738;37.804;2023-06-22T04:20:20;9.00;118.99
75296;DHT22;64623;44.738;37.804;2023-06-22T04:21:26;8.93;118.99
75296;DHT22;64623;44.738;37.804;2023-06-22T04:22:28;8.86;118.99
75296;DHT22;64623;44.738;37.804;2023-06-22T04:23:32;9.14;118.99
75296;DHT22;64623;44.738;37.804;2023-06-22T04:24:35;9.20;118.99
75296;DHT22;64623;44.738;37.804;2023-06-22T04:25:38;9.34;118.99
75296;DHT22;64623;44.738;37.804;2023-06-22T04:26:41;9.47;118.99
75296;DHT22;64623;44.738;37.804;2023-06-22T04:27:48;9.46;118.99
75296;DHT22;64623;44.738;37.804;2023-06-22T04:28:51;9.49;118.99
75296;DHT22;64623;44.738;37.804;2023-06-22T04:29:58;9.40;118.99
75296;DHT22;64623;44.738;37.804;2023-06-22T04:31:03;9.48;118.99
75296;DHT22;64623;44.738;37.804;2023-06-22T04:32:07;9.35;118.99
75296;DHT22;64623;44.738;37.804;2023-06-22T04:33:10;9.19;118.99
75296;DHT22;64623;44.738;37.804;2023-06-22T04:34:14;9.30;118.99
75296;DHT22;64623;44.738;37.804;2023-06-22T04:35:19;9.25;118.99
75296;DHT22;64623;44.738;37.804;2023-06-22T04:36:22;9.36;118.99
75296;DHT22;64623;44.738;37.804;2023-06-22T04:37:27;9.45;118.99
75296;DHT22;64623;44.738;37.804;2023-06-22T04:38:30;9.41;118.99
75296;DHT22;64623;44.738;37.804;2023-06-22T04:39:35;9.57;118.99
75296;DHT22;64623;44.738;37.804;2023-06-22T04:40:39;9.47;118.99
75296;DHT22;64623;44.738;37.804;2023-06-22T04:41:43;9.34;118.99
75296;DHT22;64623;44.738;37.804;2023-06-22T04:42:46;9.30;118.99
75296;DHT22;64623;44.738;37.804;2023-06-22T04:43:55;9.44;118.99
75296;DHT22;64623;44.738;37.804;2023-06-22T04:45:03;9.49;118.99
75296;DHT22;64623;44.738;37.804;2023-06-22T04:46:06;9.68;118.99
75296;DHT22;64623;44.738;37.804;2023-06-22T04:47:10;9.80;118.99
75296;DHT22;64623;44.738;37.804;2023-06-22T04:48:13;9.76;118.99
75296;DHT22;64623;44.738;37.804;2023-06-22T04:49:18;9.84;118.99
75296;DHT22;64623;44.738;37.804;2023-06-22T04:50:22;10.14;118.99
75296;DHT22;64623;44.738;37.804;2023-06-22T04:51:26;9.94;118.99
75296;DHT22;64623;44.738;37.804;2023-06-22T04:52:33;9.91;118.99
75296;DHT22;64623;44.738;37.804;2023-06-22T04:53:36;9.97;118.99
75296;DHT22;64623;44.738;37.804;2023-06-22T04:54:40;10.08;118.99
75296;DHT22;64623;44.738;37.804;2023-06-22T04:55:50;9.98;118.99
75296;DHT22;64623;44.738;37.804;2023-06-22T04:56:55;10.08;118.99
75296;DHT22;64623;44.738;37.804;2023-06-22T04:58:01;9.91;118.99
75296;DHT22;64623;44.738;37.804;2023-06-22T04:59:07;9.74;118.99
75296;DHT22;64623;44.738;37.804;2023-06-22T05:00:17;9.74;118.99
75296;DHT22;64623;44.738;37.804;2023-06-22T05:01:22;9.81;118.99
75296;DHT22;64623;44.738;37.804;2023-06-22T05:02:25;9.94;118.99
75296;DHT22;64623;44.738;37.804;2023-06-22T05:03:30;10.04;118.99
75296;DHT22;64623;44.738;37.804;2023-06-22T05:04:33;9.83;118.99
75296;DHT22;64623;44.738;37.804;2023-06-22T05:05:38;9.90;118.99
75296;DHT22;64623;44.738;37.804;2023-06-22T05:06:42;10.11;118.99
75296;DHT22;64623;44.738;37.804;2023-06-22T05:07:50;10.22;118.99
75296;DHT22;64623;44.738;37.804;2023-06-22T05:08:56;10.24;118.99
75296;DHT22;64623;44.738;37.804;2023-06-22T05:10:03;10.29;118.99
75296;DHT22;64623;44.738;37.804;2023-06-22T05:11:06;10.16;118.99
75296;DHT22;64623;44.738;37.804;2023-06-22T05:12:09;10.18;118.99
75296;DHT22;64623;44.738;37.804;2023-06-22T05:13:14;10.27;118.99
75296;DHT22;64623;44.738;37.804;2023-06-22T05:14:18;10.15;118.99
75296;DHT22;64623;44.738;37.804;2023-06-22T05:15:21;10.12;118.99
75296;DHT22;64623;44.738;37.804;2023-06-22T05:16:29;10.69;118.99
75296;DHT22;64623;44.738;37.804;2023-06-22T05:17:32;10.56;118.99
75296;DHT22;64623;44.738;37.804;2023-06-22T05:18:36;10.46;118.99
75296;DHT22;64623;44.738;37.804;2023-06-22T05:19:41;10.30;118.99
75296;DHT22;64623;44.738;37.804;2023-06-22T05:20:50;10.66;118.99
75296;DHT22;64623;44.738;37.804;2023-06-22T05:21:54;10.66;118.99
75296;DHT22;64623;44.738;37.804;2023-06-22T05:22:57;10.51;118.99
75296;DHT22;64623;44.738;37.804;2023-06-22T05:24:01;10.65;118.99
75296;DHT22;64623;44.738;37.804;2023-06-22T05:25:09;10.60;118.99
75296;DHT22;64623;44.738;37.804;2023-06-22T05:26:12;10.86;118.99
75296;DHT22;64623;44.738;37.804;2023-06-22T05:27:15;10.86;118.99
75296;DHT22;64623;44.738;37.804;2023-06-22T05:28:18;10.95;118.99
75296;DHT22;64623;44.738;37.804;2023-06-22T05:29:25;10.84;118.99
75296;DHT22;64623;44.738;37.804;2023-06-22T05:30:29;10.81;118.99
75296;DHT22;64623;44.738;37.804;2023-06-22T05:31:33;10.92;118.99
75296;DHT22;64623;44.738;37.804;2023-06-22T05:32:37;11.05;118.99
75296;DHT22;64623;44.738;37.804;2023-06-22T05:33:42;10.82;118.99
75296;DHT22;64623;44.738;37.804;2023-06-22T05:34:45;11.18;118.99
75296;DHT22;64623;44.738;37.804;2023-06-22T05:35:48;11.33;118.99
75296;DHT22;64623;44.738;37.804;2023-06-22T05:36:51;11.19;118.99
75296;DHT22;64623;44.738;37.804;2023-06-22T05:37:55;11.19;118.99
75296;DHT22;64623;44.738;37.804;2023-06-22T05:38:58;11.33;118.99
75296;DHT22;64623;44.738;37.804;2023-06-22T05:40:01;11.09;118.99
75296;DHT22;64623;44.738;37.804;2023-06-22T05:41:05;10.96;118.99
75296;DHT22;64623;44.738;37.804;2023-06-22T05:42:08;11.05;118.99
75296;DHT22;64623;44.738;37.804;2023-06-22T05:43:12;10.90;118.99
75296;DHT22;64623;44.738;37.804;2023-06-22T05:44:15;10.96;118.99
75296;DHT22;64623;44.738;37.804;2023-06-22T05:45:18;11.08;118.99
75296;DHT22;64623;44.738;37.804;2023-06-22T05:46:21;11.14;118.99
75296;DHT22;64623;44.738;37.804;2023-06-22T05:47:24;11.22;118.99
75296;DHT22;64623;44.738;37.804;2023-06-22T05:48:28;11.27;118.99
75296;DHT22;64623;44.738;37.804;2023-06-22T05:49:31;11.52;118.99
75296;DHT22;64623;44.738;37.804;2023-06-22T05:50:36;11.58;118.99
75296;DHT22;64623;44.738;37.804;2023-06-22T05:51:41;11.77;118.99
75296;DHT22;64623;44.738;37.804;2023-06-22T05:52:44;11.79;118.99
75296;DHT22;64623;44.738;37.804;2023-06-22T05:53:47;11.98;118.99
75296;DHT22;64623;44.738;37.804;2023-06-22T05:54:52;11.83;118.99
75296;DHT22;64623;44.738;37.804;2023-06-22T05:55:55;11.94;118.99
75296;DHT22;64623;44.738;37.804;2023-06-22T05:56:58;11.77;118.99
75296;DHT22;64623;44.738;37.804;2023-06-22T05:58:01;11.62;118.99
75296;DHT22;64623;44.738;37.804;2023-06-22T05:59:06;11.64;118.99
75296;DHT22;64623;44.738;37.804;2023-06-22T06:00:09;11.16;118.99
75296;DHT22;64623;44.738;37.804;2023-06-22T06:01:13;11.23;118.99
75296;DHT22;64623;44.738;37.804;2023-06-22T06:02:18;11.34;118.99
75296;DHT22;64623;44.738;37.804;2023-06-22T06:03:22;11.49;118.99
75296;DHT22;64623;44.738;37.804;2023-06-22T06:04:25;11.64;118.99
75296;DHT22;64623;44.738;37.804;2023-06-22T06:05:30;12.05;118.99
75296;DHT22;64623;44.738;37.804;2023-06-22T06:06:34;11.93;118.99
75296;DHT22;64623;44.738;37.804;2023-06-22T06:07:40;12.12;118.99
75296;DHT22;64623;44.738;37.804;2023-06-22T06:08:44;12.06;118.99
75296;DHT22;64623;44.738;37.804;2023-06-22T06:09:47;12.07;118.99
75296;DHT22;64623;44.738;37.804;2023-06-22T06:10:50;12.29;118.99
75296;DHT22;64623;44.738;37.804;2023-06-22T06:11:55;12.00;118.99
75296;DHT22;64623;44.738;37.804;2023-06-22T06:12:59;11.88;118.99
75296;DHT22;64623;44.738;37.804;2023-06-22T06:14:05;12.06;118.99
75296;DHT22;64623;44.738;37.804;2023-06-22T06:15:08;11.97;118.99
75296;DHT22;64623;44.738;37.804;2023-06-22T06:16:12;11.67;118.99
75296;DHT22;64623;44.738;37.804;2023-06-22T06:17:15;11.88;118.99
75296;DHT22;64623;44.738;37.804;2023-06-22T06:18:18;12.30;118.99
75296;DHT22;64623;44.738;37.804;2023-06-22T06:19:21;12.42;118.99
75296;DHT22;64623;44.738;37.804;2023-06-22T06:20:26;12.74;118.99
75296;DHT22;64623;44.738;37.804;2023-06-22T06:21:30;12.62;118.99
75296;DHT22;64623;44.738;37.804;2023-06-22T06:22:33;12.59;118.99
75296;DHT22;64623;44.738;37.804;2023-06-22T06:23:36;12.48;118.99
75296;DHT22;64623;44.738;37.804;2023-06-22T06:24:39;12.58;118.99
75296;DHT22;64623;44.738;37.804;2023-06-22T06:25:42;12.90;118.99
75296;DHT22;64623;44.738;37.804;2023-06-22T06:26:46;12.71;118.99
75296;DHT22;64623;44.738;37.804;2023-06-22T06:27:51;12.84;118.99
75296;DHT22;64623;44.738;37.804;2023-06-22T06:28:55;12.45;118.99
75296;DHT22;64623;44.738;37.804;2023-06-22T06:29:58;12.51;118.99
75296;DHT22;64623;44.738;37.804;2023-06-22T06:31:02;12.80;118.99
75296;DHT22;64623;44.738;37.804;2023-06-22T06:32:05;12.69;118.99
75296;DHT22;64623;44.738;37.804;2023-06-22T06:33:09;13.24;118.99
75296;DHT22;64623;44.738;37.804;2023-06-22T06:34:12;12.86;118.99
75296;DHT22;64623;44.738;37.804;2023-06-22T06:35:15;12.78;118.99
75296;DHT22;64623;44.738;37.804;2023-06-22T06:36:22;12.55;118.99
75296;DHT22;64623;44.738;37.804;2023-06-22T06:37:25;12.40;118.99
75296;DHT22;64623;44.738;37.804;2023-06-22T06:38:28;12.36;118.99
75296;DHT22;64623;44.738;37.804;2023-06-22T06:39:31;12.64;118.99
75296;DHT22;64623;44.738;37.804;2023-06-22T06:40:34;12.45;118.99
75296;DHT22;64623;44.738;37.804;2023-06-22T06:41:37;12.31;118.99
75296;DHT22;64623;44.738;37.804;2023-06-22T06:42:49;12.94;118.99
75296;DHT22;64623;44.738;37.804;2023-06-22T06:43:52;13.19;118.99
75296;DHT22;64623;44.738;37.804;2023-06-22T06:44:55;13.00;118.99
75296;DHT22;64623;44.738;37.804;2023-06-22T06:45:58;12.61;118.99
75296;DHT22;64623;44.738;37.804;2023-06-22T06:47:04;12.80;118.99
75296;DHT22;64623;44.738;37.804;2023-06-22T06:48:07;13.46;118.99